sensor_id;sensor_type;location;lat;lon;timestamp;P1;durP1;ratioP1;P2;durP2;ratioP2
3333;SDS011;1679;50.392;8.008;2022-07-23T00:00:57;10.60;;;9.60;;
3333;SDS011;1679;50.392;8.008;2022-07-23T00:03:23;10.17;;;9.27;;
3333;SDS011;1679;50.392;8.008;2022-07-23T00:05:49;10.17;;;9.27;;
3333;SDS011;1679;50.392;8.008;2022-07-23T00:08:15;10.87;;;9.97;;
3333;SDS011;1679;50.392;8.008;2022-07-23T00:10:41;10.07;;;9.20;;
3333;SDS011;1679;50.392;8.008;2022-07-23T00:13:07;10.97;;;9.90;;
3333;SDS011;1679;50.392;8.008;2022-07-23T00:15:32;11.40;;;10.40;;
3333;SDS011;1679;50.392;8.008;2022-07-23T00:17:58;9.93;;;9.13;;
3333;SDS011;1679;50.392;8.008;2022-07-23T00:20:24;10.47;;;9.47;;
3333;SDS011;1679;50.392;8.008;2022-07-23T00:22:51;9.63;;;8.83;;
3333;SDS011;1679;50.392;8.008;2022-07-23T00:25:18;10.87;;;9.80;;
3333;SDS011;1679;50.392;8.008;2022-07-23T00:27:44;10.97;;;9.87;;
3333;SDS011;1679;50.392;8.008;2022-07-23T00:30:10;10.37;;;9.37;;
3333;SDS011;1679;50.392;8.008;2022-07-23T00:35:16;10.30;;;9.30;;
3333;SDS011;1679;50.392;8.008;2022-07-23T00:37:44;10.87;;;9.97;;
3333;SDS011;1679;50.392;8.008;2022-07-23T00:40:10;10.67;;;9.77;;
3333;SDS011;1679;50.392;8.008;2022-07-23T00:42:36;14.23;;;10.83;;
3333;SDS011;1679;50.392;8.008;2022-07-23T00:45:02;10.77;;;9.77;;
3333;SDS011;1679;50.392;8.008;2022-07-23T00:47:28;11.37;;;10.20;;
3333;SDS011;1679;50.392;8.008;2022-07-23T00:49:54;12.33;;;10.97;;
3333;SDS011;1679;50.392;8.008;2022-07-23T00:52:20;12.00;;;10.90;;
3333;SDS011;1679;50.392;8.008;2022-07-23T00:54:45;11.73;;;10.40;;
3333;SDS011;1679;50.392;8.008;2022-07-23T00:57:12;11.70;;;10.23;;
3333;SDS011;1679;50.392;8.008;2022-07-23T00:59:38;12.40;;;11.10;;
3333;SDS011;1679;50.392;8.008;2022-07-23T01:02:04;13.57;;;11.37;;
3333;SDS011;1679;50.392;8.008;2022-07-23T01:04:30;10.77;;;9.60;;
3333;SDS011;1679;50.392;8.008;2022-07-23T01:06:55;11.93;;;10.73;;
3333;SDS011;1679;50.392;8.008;2022-07-23T01:09:21;12.20;;;11.10;;
3333;SDS011;1679;50.392;8.008;2022-07-23T01:11:46;13.40;;;11.97;;
3333;SDS011;1679;50.392;8.008;2022-07-23T01:14:13;13.83;;;12.50;;
3333;SDS011;1679;50.392;8.008;2022-07-23T01:16:41;14.10;;;12.23;;
3333;SDS011;1679;50.392;8.008;2022-07-23T01:19:08;14.67;;;11.83;;
3333;SDS011;1679;50.392;8.008;2022-07-23T01:21:41;13.23;;;11.70;;
3333;SDS011;1679;50.392;8.008;2022-07-23T01:24:11;16.13;;;12.07;;
3333;SDS011;1679;50.392;8.008;2022-07-23T01:26:38;13.90;;;12.50;;
3333;SDS011;1679;50.392;8.008;2022-07-23T01:29:04;12.83;;;10.80;;
3333;SDS011;1679;50.392;8.008;2022-07-23T01:31:30;12.90;;;11.60;;
3333;SDS011;1679;50.392;8.008;2022-07-23T01:33:55;14.23;;;12.73;;
3333;SDS011;1679;50.392;8.008;2022-07-23T01:36:21;16.50;;;12.00;;
3333;SDS011;1679;50.392;8.008;2022-07-23T01:38:47;12.67;;;11.37;;
3333;SDS011;1679;50.392;8.008;2022-07-23T01:41:14;14.47;;;11.47;;
3333;SDS011;1679;50.392;8.008;2022-07-23T01:43:40;12.30;;;11.10;;
3333;SDS011;1679;50.392;8.008;2022-07-23T01:46:05;12.50;;;11.20;;
3333;SDS011;1679;50.392;8.008;2022-07-23T01:48:31;13.20;;;11.30;;
3333;SDS011;1679;50.392;8.008;2022-07-23T01:50:57;13.10;;;11.80;;
3333;SDS011;1679;50.392;8.008;2022-07-23T01:53:22;13.23;;;11.40;;
3333;SDS011;1679;50.392;8.008;2022-07-23T01:55:48;15.07;;;12.03;;
3333;SDS011;1679;50.392;8.008;2022-07-23T01:58:13;11.93;;;10.73;;
3333;SDS011;1679;50.392;8.008;2022-07-23T02:00:39;13.87;;;12.30;;
3333;SDS011;1679;50.392;8.008;2022-07-23T02:03:04;13.47;;;12.10;;
3333;SDS011;1679;50.392;8.008;2022-07-23T02:05:30;14.53;;;13.10;;
3333;SDS011;1679;50.392;8.008;2022-07-23T02:07:57;13.73;;;12.43;;
3333;SDS011;1679;50.392;8.008;2022-07-23T02:10:23;14.23;;;12.63;;
3333;SDS011;1679;50.392;8.008;2022-07-23T02:12:49;14.73;;;12.50;;
3333;SDS011;1679;50.392;8.008;2022-07-23T02:15:15;13.23;;;11.27;;
3333;SDS011;1679;50.392;8.008;2022-07-23T02:17:41;14.40;;;12.90;;
3333;SDS011;1679;50.392;8.008;2022-07-23T02:20:07;15.37;;;13.73;;
3333;SDS011;1679;50.392;8.008;2022-07-23T02:22:33;14.03;;;12.27;;
3333;SDS011;1679;50.392;8.008;2022-07-23T02:24:59;13.90;;;12.50;;
3333;SDS011;1679;50.392;8.008;2022-07-23T02:27:25;13.60;;;11.30;;
3333;SDS011;1679;50.392;8.008;2022-07-23T02:29:50;13.43;;;12.23;;
3333;SDS011;1679;50.392;8.008;2022-07-23T02:32:16;13.37;;;12.07;;
3333;SDS011;1679;50.392;8.008;2022-07-23T02:34:42;14.47;;;11.90;;
3333;SDS011;1679;50.392;8.008;2022-07-23T02:37:07;13.63;;;12.30;;
3333;SDS011;1679;50.392;8.008;2022-07-23T02:39:33;18.33;;;12.40;;
3333;SDS011;1679;50.392;8.008;2022-07-23T02:42:00;14.30;;;12.40;;
3333;SDS011;1679;50.392;8.008;2022-07-23T02:44:25;13.73;;;12.07;;
3333;SDS011;1679;50.392;8.008;2022-07-23T02:46:51;16.37;;;12.27;;
3333;SDS011;1679;50.392;8.008;2022-07-23T02:49:17;16.47;;;13.00;;
3333;SDS011;1679;50.392;8.008;2022-07-23T02:51:42;15.40;;;13.13;;
3333;SDS011;1679;50.392;8.008;2022-07-23T02:54:08;14.13;;;12.70;;
3333;SDS011;1679;50.392;8.008;2022-07-23T02:56:34;13.93;;;12.53;;
3333;SDS011;1679;50.392;8.008;2022-07-23T02:58:59;13.67;;;12.27;;
3333;SDS011;1679;50.392;8.008;2022-07-23T03:01:25;15.40;;;13.70;;
3333;SDS011;1679;50.392;8.008;2022-07-23T03:03:50;13.30;;;12.00;;
3333;SDS011;1679;50.392;8.008;2022-07-23T03:06:16;14.30;;;11.97;;
3333;SDS011;1679;50.392;8.008;2022-07-23T03:08:42;13.50;;;12.10;;
3333;SDS011;1679;50.392;8.008;2022-07-23T03:11:07;12.93;;;11.63;;
3333;SDS011;1679;50.392;8.008;2022-07-23T03:13:36;13.70;;;12.30;;
3333;SDS011;1679;50.392;8.008;2022-07-23T03:16:05;16.40;;;12.30;;
3333;SDS011;1679;50.392;8.008;2022-07-23T03:18:31;13.10;;;11.80;;
3333;SDS011;1679;50.392;8.008;2022-07-23T03:20:57;14.20;;;12.87;;
3333;SDS011;1679;50.392;8.008;2022-07-23T03:23:23;13.10;;;11.70;;
3333;SDS011;1679;50.392;8.008;2022-07-23T03:25:48;13.27;;;11.90;;
3333;SDS011;1679;50.392;8.008;2022-07-23T03:28:14;13.27;;;11.83;;
3333;SDS011;1679;50.392;8.008;2022-07-23T03:30:41;13.73;;;12.30;;
3333;SDS011;1679;50.392;8.008;2022-07-23T03:33:08;14.13;;;12.67;;
3333;SDS011;1679;50.392;8.008;2022-07-23T03:35:33;13.00;;;11.50;;
3333;SDS011;1679;50.392;8.008;2022-07-23T03:37:59;14.03;;;11.90;;
3333;SDS011;1679;50.392;8.008;2022-07-23T03:40:25;13.77;;;12.37;;
3333;SDS011;1679;50.392;8.008;2022-07-23T03:42:50;12.77;;;11.47;;
3333;SDS011;1679;50.392;8.008;2022-07-23T03:45:16;13.80;;;12.40;;
3333;SDS011;1679;50.392;8.008;2022-07-23T03:47:42;13.73;;;12.30;;
3333;SDS011;1679;50.392;8.008;2022-07-23T03:50:09;13.70;;;11.80;;
3333;SDS011;1679;50.392;8.008;2022-07-23T03:52:34;13.47;;;11.70;;
3333;SDS011;1679;50.392;8.008;2022-07-23T03:55:00;13.03;;;11.60;;
3333;SDS011;1679;50.392;8.008;2022-07-23T03:57:26;14.43;;;12.73;;
3333;SDS011;1679;50.392;8.008;2022-07-23T03:59:52;14.53;;;12.83;;
3333;SDS011;1679;50.392;8.008;2022-07-23T04:02:18;12.70;;;11.50;;
3333;SDS011;1679;50.392;8.008;2022-07-23T04:04:43;14.40;;;11.80;;
3333;SDS011;1679;50.392;8.008;2022-07-23T04:07:09;13.13;;;11.87;;
3333;SDS011;1679;50.392;8.008;2022-07-23T04:09:34;13.43;;;12.03;;
3333;SDS011;1679;50.392;8.008;2022-07-23T04:12:00;13.30;;;11.90;;
3333;SDS011;1679;50.392;8.008;2022-07-23T04:14:26;13.40;;;12.10;;
3333;SDS011;1679;50.392;8.008;2022-07-23T04:16:52;15.63;;;13.33;;
3333;SDS011;1679;50.392;8.008;2022-07-23T04:19:17;13.77;;;12.30;;
3333;SDS011;1679;50.392;8.008;2022-07-23T04:21:43;13.50;;;12.20;;
3333;SDS011;1679;50.392;8.008;2022-07-23T04:24:08;14.23;;;11.80;;
3333;SDS011;1679;50.392;8.008;2022-07-23T04:26:34;16.70;;;12.77;;
3333;SDS011;1679;50.392;8.008;2022-07-23T04:28:59;13.67;;;11.90;;
3333;SDS011;1679;50.392;8.008;2022-07-23T04:31:25;13.10;;;11.70;;
3333;SDS011;1679;50.392;8.008;2022-07-23T04:33:50;13.70;;;12.30;;
3333;SDS011;1679;50.392;8.008;2022-07-23T04:36:16;19.67;;;13.27;;
3333;SDS011;1679;50.392;8.008;2022-07-23T04:38:42;16.10;;;11.07;;
3333;SDS011;1679;50.392;8.008;2022-07-23T04:41:07;14.50;;;12.60;;
3333;SDS011;1679;50.392;8.008;2022-07-23T04:43:33;13.77;;;12.27;;
3333;SDS011;1679;50.392;8.008;2022-07-23T04:45:58;13.80;;;12.40;;
3333;SDS011;1679;50.392;8.008;2022-07-23T04:48:24;18.80;;;12.93;;
3333;SDS011;1679;50.392;8.008;2022-07-23T04:50:49;14.33;;;12.37;;
3333;SDS011;1679;50.392;8.008;2022-07-23T04:53:15;17.83;;;12.97;;
3333;SDS011;1679;50.392;8.008;2022-07-23T04:55:41;14.60;;;12.33;;
3333;SDS011;1679;50.392;8.008;2022-07-23T04:58:06;19.30;;;13.50;;
3333;SDS011;1679;50.392;8.008;2022-07-23T05:00:32;17.30;;;12.43;;
3333;SDS011;1679;50.392;8.008;2022-07-23T05:02:58;14.27;;;12.23;;
3333;SDS011;1679;50.392;8.008;2022-07-23T05:05:23;20.80;;;13.20;;
3333;SDS011;1679;50.392;8.008;2022-07-23T05:07:49;13.80;;;12.50;;
3333;SDS011;1679;50.392;8.008;2022-07-23T05:10:14;13.57;;;12.17;;
3333;SDS011;1679;50.392;8.008;2022-07-23T05:12:40;16.60;;;13.27;;
3333;SDS011;1679;50.392;8.008;2022-07-23T05:15:05;14.70;;;13.20;;
3333;SDS011;1679;50.392;8.008;2022-07-23T05:17:31;16.83;;;12.37;;
3333;SDS011;1679;50.392;8.008;2022-07-23T05:19:57;13.20;;;11.90;;
3333;SDS011;1679;50.392;8.008;2022-07-23T05:22:22;15.77;;;11.77;;
3333;SDS011;1679;50.392;8.008;2022-07-23T05:24:48;16.93;;;11.70;;
3333;SDS011;1679;50.392;8.008;2022-07-23T05:27:13;12.70;;;11.40;;
3333;SDS011;1679;50.392;8.008;2022-07-23T05:29:39;12.97;;;11.40;;
3333;SDS011;1679;50.392;8.008;2022-07-23T05:32:04;16.80;;;12.70;;
3333;SDS011;1679;50.392;8.008;2022-07-23T05:34:30;12.50;;;11.30;;
3333;SDS011;1679;50.392;8.008;2022-07-23T05:36:56;13.70;;;12.20;;
3333;SDS011;1679;50.392;8.008;2022-07-23T05:39:21;14.07;;;12.57;;
3333;SDS011;1679;50.392;8.008;2022-07-23T05:41:47;16.03;;;12.30;;
3333;SDS011;1679;50.392;8.008;2022-07-23T05:44:12;15.40;;;12.90;;
3333;SDS011;1679;50.392;8.008;2022-07-23T05:46:38;15.70;;;12.50;;
3333;SDS011;1679;50.392;8.008;2022-07-23T05:49:03;14.20;;;12.80;;
3333;SDS011;1679;50.392;8.008;2022-07-23T05:51:29;15.17;;;11.43;;
3333;SDS011;1679;50.392;8.008;2022-07-23T05:53:55;11.73;;;10.63;;
3333;SDS011;1679;50.392;8.008;2022-07-23T05:56:20;17.83;;;10.97;;
3333;SDS011;1679;50.392;8.008;2022-07-23T05:58:46;12.20;;;10.37;;
3333;SDS011;1679;50.392;8.008;2022-07-23T06:01:12;10.63;;;9.63;;
3333;SDS011;1679;50.392;8.008;2022-07-23T06:03:38;9.97;;;9.07;;
3333;SDS011;1679;50.392;8.008;2022-07-23T06:06:04;10.10;;;9.20;;
3333;SDS011;1679;50.392;8.008;2022-07-23T06:08:30;10.10;;;9.10;;
3333;SDS011;1679;50.392;8.008;2022-07-23T06:10:55;10.37;;;9.30;;
3333;SDS011;1679;50.392;8.008;2022-07-23T06:13:21;11.03;;;8.80;;
3333;SDS011;1679;50.392;8.008;2022-07-23T06:15:46;10.50;;;9.00;;
3333;SDS011;1679;50.392;8.008;2022-07-23T06:18:12;10.10;;;9.10;;
3333;SDS011;1679;50.392;8.008;2022-07-23T06:20:37;11.70;;;9.70;;
3333;SDS011;1679;50.392;8.008;2022-07-23T06:23:03;9.80;;;8.90;;
3333;SDS011;1679;50.392;8.008;2022-07-23T06:25:29;10.67;;;9.67;;
3333;SDS011;1679;50.392;8.008;2022-07-23T06:27:55;9.10;;;8.20;;
3333;SDS011;1679;50.392;8.008;2022-07-23T06:30:20;10.50;;;9.50;;
3333;SDS011;1679;50.392;8.008;2022-07-23T06:32:46;10.47;;;9.50;;
3333;SDS011;1679;50.392;8.008;2022-07-23T06:35:12;10.17;;;9.27;;
3333;SDS011;1679;50.392;8.008;2022-07-23T06:37:37;9.57;;;8.80;;
3333;SDS011;1679;50.392;8.008;2022-07-23T06:40:03;9.10;;;8.00;;
3333;SDS011;1679;50.392;8.008;2022-07-23T06:42:29;9.90;;;8.90;;
3333;SDS011;1679;50.392;8.008;2022-07-23T06:44:55;8.63;;;7.83;;
3333;SDS011;1679;50.392;8.008;2022-07-23T06:47:21;8.60;;;7.93;;
3333;SDS011;1679;50.392;8.008;2022-07-23T06:49:46;8.10;;;7.50;;
3333;SDS011;1679;50.392;8.008;2022-07-23T06:52:12;9.60;;;7.83;;
3333;SDS011;1679;50.392;8.008;2022-07-23T06:54:37;8.13;;;7.43;;
3333;SDS011;1679;50.392;8.008;2022-07-23T06:57:03;8.80;;;7.70;;
3333;SDS011;1679;50.392;8.008;2022-07-23T06:59:30;7.73;;;7.03;;
3333;SDS011;1679;50.392;8.008;2022-07-23T07:01:56;8.27;;;7.47;;
3333;SDS011;1679;50.392;8.008;2022-07-23T07:04:23;7.07;;;6.10;;
3333;SDS011;1679;50.392;8.008;2022-07-23T07:06:48;8.07;;;7.40;;
3333;SDS011;1679;50.392;8.008;2022-07-23T07:09:14;8.40;;;7.60;;
3333;SDS011;1679;50.392;8.008;2022-07-23T07:11:39;7.73;;;7.13;;
3333;SDS011;1679;50.392;8.008;2022-07-23T07:14:05;7.03;;;6.40;;
3333;SDS011;1679;50.392;8.008;2022-07-23T07:16:31;6.83;;;6.07;;
3333;SDS011;1679;50.392;8.008;2022-07-23T07:18:57;6.73;;;6.23;;
3333;SDS011;1679;50.392;8.008;2022-07-23T07:21:22;7.27;;;6.57;;
3333;SDS011;1679;50.392;8.008;2022-07-23T07:23:48;6.53;;;6.03;;
3333;SDS011;1679;50.392;8.008;2022-07-23T07:26:14;9.13;;;7.90;;
3333;SDS011;1679;50.392;8.008;2022-07-23T07:28:39;7.40;;;6.80;;
3333;SDS011;1679;50.392;8.008;2022-07-23T07:31:05;6.33;;;5.80;;
3333;SDS011;1679;50.392;8.008;2022-07-23T07:33:30;7.07;;;6.57;;
3333;SDS011;1679;50.392;8.008;2022-07-23T07:35:56;6.63;;;6.13;;
3333;SDS011;1679;50.392;8.008;2022-07-23T07:38:22;6.40;;;5.90;;
3333;SDS011;1679;50.392;8.008;2022-07-23T07:40:47;6.80;;;6.20;;
3333;SDS011;1679;50.392;8.008;2022-07-23T07:43:13;6.77;;;6.17;;
3333;SDS011;1679;50.392;8.008;2022-07-23T07:45:38;5.83;;;5.40;;
3333;SDS011;1679;50.392;8.008;2022-07-23T07:48:04;6.00;;;5.60;;
3333;SDS011;1679;50.392;8.008;2022-07-23T07:50:30;7.00;;;6.50;;
3333;SDS011;1679;50.392;8.008;2022-07-23T07:52:56;6.40;;;5.90;;
3333;SDS011;1679;50.392;8.008;2022-07-23T07:55:21;6.87;;;6.23;;
3333;SDS011;1679;50.392;8.008;2022-07-23T07:57:47;7.73;;;7.07;;
3333;SDS011;1679;50.392;8.008;2022-07-23T08:00:13;7.03;;;6.60;;
3333;SDS011;1679;50.392;8.008;2022-07-23T08:02:39;7.60;;;7.00;;
3333;SDS011;1679;50.392;8.008;2022-07-23T08:05:06;7.37;;;6.60;;
3333;SDS011;1679;50.392;8.008;2022-07-23T08:07:31;7.90;;;7.30;;
3333;SDS011;1679;50.392;8.008;2022-07-23T08:09:57;8.13;;;7.50;;
3333;SDS011;1679;50.392;8.008;2022-07-23T08:12:23;7.87;;;7.17;;
3333;SDS011;1679;50.392;8.008;2022-07-23T08:14:48;8.17;;;7.37;;
3333;SDS011;1679;50.392;8.008;2022-07-23T08:17:14;7.40;;;6.80;;
3333;SDS011;1679;50.392;8.008;2022-07-23T08:19:39;7.17;;;6.67;;
3333;SDS011;1679;50.392;8.008;2022-07-23T08:22:05;7.90;;;7.20;;
3333;SDS011;1679;50.392;8.008;2022-07-23T08:24:30;7.30;;;6.70;;
3333;SDS011;1679;50.392;8.008;2022-07-23T08:26:56;7.20;;;6.50;;
3333;SDS011;1679;50.392;8.008;2022-07-23T08:29:22;7.57;;;6.53;;
3333;SDS011;1679;50.392;8.008;2022-07-23T08:31:47;8.70;;;6.50;;
3333;SDS011;1679;50.392;8.008;2022-07-23T08:34:13;7.27;;;6.77;;
3333;SDS011;1679;50.392;8.008;2022-07-23T08:36:38;7.60;;;7.00;;
3333;SDS011;1679;50.392;8.008;2022-07-23T08:39:04;7.17;;;6.57;;
3333;SDS011;1679;50.392;8.008;2022-07-23T08:41:29;7.57;;;6.97;;
3333;SDS011;1679;50.392;8.008;2022-07-23T08:43:55;7.10;;;6.40;;
3333;SDS011;1679;50.392;8.008;2022-07-23T08:46:21;7.67;;;6.97;;
3333;SDS011;1679;50.392;8.008;2022-07-23T08:48:48;7.90;;;7.30;;
3333;SDS011;1679;50.392;8.008;2022-07-23T08:51:15;7.30;;;6.80;;
3333;SDS011;1679;50.392;8.008;2022-07-23T08:53:41;7.53;;;6.93;;
3333;SDS011;1679;50.392;8.008;2022-07-23T08:56:07;9.27;;;8.47;;
3333;SDS011;1679;50.392;8.008;2022-07-23T08:58:33;8.67;;;8.07;;
3333;SDS011;1679;50.392;8.008;2022-07-23T09:01:00;7.83;;;7.23;;
3333;SDS011;1679;50.392;8.008;2022-07-23T09:03:27;7.40;;;6.80;;
3333;SDS011;1679;50.392;8.008;2022-07-23T09:05:54;7.73;;;7.03;;
3333;SDS011;1679;50.392;8.008;2022-07-23T09:08:23;7.43;;;6.93;;
3333;SDS011;1679;50.392;8.008;2022-07-23T09:10:56;7.47;;;6.97;;
3333;SDS011;1679;50.392;8.008;2022-07-23T09:15:52;8.87;;;8.07;;
3333;SDS011;1679;50.392;8.008;2022-07-23T09:18:18;8.50;;;7.70;;
3333;SDS011;1679;50.392;8.008;2022-07-23T09:20:44;8.47;;;7.87;;
3333;SDS011;1679;50.392;8.008;2022-07-23T09:23:10;8.00;;;7.40;;
3333;SDS011;1679;50.392;8.008;2022-07-23T09:25:36;7.20;;;6.70;;
3333;SDS011;1679;50.392;8.008;2022-07-23T09:28:01;7.97;;;7.27;;
3333;SDS011;1679;50.392;8.008;2022-07-23T09:30:28;8.00;;;7.30;;
3333;SDS011;1679;50.392;8.008;2022-07-23T09:38:19;7.57;;;7.07;;
3333;SDS011;1679;50.392;8.008;2022-07-23T09:40:46;8.87;;;8.07;;
3333;SDS011;1679;50.392;8.008;2022-07-23T09:43:13;7.87;;;7.17;;
3333;SDS011;1679;50.392;8.008;2022-07-23T09:45:52;8.20;;;7.60;;
3333;SDS011;1679;50.392;8.008;2022-07-23T09:48:18;9.57;;;8.63;;
3333;SDS011;1679;50.392;8.008;2022-07-23T09:50:44;8.60;;;7.97;;
3333;SDS011;1679;50.392;8.008;2022-07-23T09:53:23;8.30;;;7.53;;
3333;SDS011;1679;50.392;8.008;2022-07-23T09:55:50;8.63;;;7.77;;
3333;SDS011;1679;50.392;8.008;2022-07-23T09:58:19;7.90;;;7.33;;
3333;SDS011;1679;50.392;8.008;2022-07-23T10:00:47;8.77;;;8.13;;
3333;SDS011;1679;50.392;8.008;2022-07-23T10:03:14;7.40;;;6.80;;
3333;SDS011;1679;50.392;8.008;2022-07-23T10:05:40;8.20;;;7.50;;
3333;SDS011;1679;50.392;8.008;2022-07-23T10:08:08;7.80;;;7.10;;
3333;SDS011;1679;50.392;8.008;2022-07-23T10:10:38;7.97;;;7.27;;
3333;SDS011;1679;50.392;8.008;2022-07-23T10:13:05;7.60;;;6.90;;
3333;SDS011;1679;50.392;8.008;2022-07-23T10:15:50;8.00;;;7.40;;
3333;SDS011;1679;50.392;8.008;2022-07-23T10:18:16;8.10;;;7.40;;
3333;SDS011;1679;50.392;8.008;2022-07-23T10:20:42;71.17;;;10.70;;
3333;SDS011;1679;50.392;8.008;2022-07-23T10:23:14;10.70;;;8.10;;
3333;SDS011;1679;50.392;8.008;2022-07-23T10:26:35;8.30;;;7.60;;
3333;SDS011;1679;50.392;8.008;2022-07-23T10:31:56;7.90;;;7.03;;
3333;SDS011;1679;50.392;8.008;2022-07-23T10:37:22;8.70;;;8.00;;
3333;SDS011;1679;50.392;8.008;2022-07-23T10:40:10;8.80;;;7.93;;
3333;SDS011;1679;50.392;8.008;2022-07-23T10:42:47;187.70;;;19.00;;
3333;SDS011;1679;50.392;8.008;2022-07-23T10:45:27;7.20;;;6.70;;
3333;SDS011;1679;50.392;8.008;2022-07-23T10:47:53;8.87;;;8.17;;
3333;SDS011;1679;50.392;8.008;2022-07-23T10:50:22;7.70;;;7.20;;
3333;SDS011;1679;50.392;8.008;2022-07-23T10:57:58;7.37;;;6.77;;
3333;SDS011;1679;50.392;8.008;2022-07-23T11:00:26;8.13;;;7.53;;
3333;SDS011;1679;50.392;8.008;2022-07-23T11:02:56;7.90;;;6.90;;
3333;SDS011;1679;50.392;8.008;2022-07-23T11:05:25;7.80;;;7.13;;
3333;SDS011;1679;50.392;8.008;2022-07-23T11:10:36;7.47;;;7.03;;
3333;SDS011;1679;50.392;8.008;2022-07-23T11:24:07;7.00;;;6.50;;
3333;SDS011;1679;50.392;8.008;2022-07-23T11:32:00;5.97;;;5.57;;
3333;SDS011;1679;50.392;8.008;2022-07-23T11:37:09;9.87;;;5.93;;
3333;SDS011;1679;50.392;8.008;2022-07-23T11:39:36;5.97;;;5.57;;
3333;SDS011;1679;50.392;8.008;2022-07-23T11:42:03;6.10;;;5.70;;
3333;SDS011;1679;50.392;8.008;2022-07-23T11:44:32;6.20;;;5.80;;
3333;SDS011;1679;50.392;8.008;2022-07-23T11:47:00;6.00;;;5.50;;
3333;SDS011;1679;50.392;8.008;2022-07-23T11:49:30;7.20;;;5.60;;
3333;SDS011;1679;50.392;8.008;2022-07-23T11:52:09;6.43;;;6.03;;
3333;SDS011;1679;50.392;8.008;2022-07-23T11:54:46;5.40;;;5.00;;
3333;SDS011;1679;50.392;8.008;2022-07-23T11:57:23;5.23;;;4.93;;
3333;SDS011;1679;50.392;8.008;2022-07-23T11:59:51;6.10;;;5.70;;
3333;SDS011;1679;50.392;8.008;2022-07-23T12:02:19;5.70;;;5.30;;
3333;SDS011;1679;50.392;8.008;2022-07-23T12:04:47;5.40;;;5.10;;
3333;SDS011;1679;50.392;8.008;2022-07-23T12:13:00;6.13;;;5.73;;
3333;SDS011;1679;50.392;8.008;2022-07-23T12:15:48;5.67;;;5.00;;
3333;SDS011;1679;50.392;8.008;2022-07-23T12:18:16;7.80;;;5.77;;
3333;SDS011;1679;50.392;8.008;2022-07-23T12:20:49;6.10;;;5.50;;
3333;SDS011;1679;50.392;8.008;2022-07-23T12:23:18;5.63;;;5.33;;
3333;SDS011;1679;50.392;8.008;2022-07-23T12:25:45;5.60;;;5.20;;
3333;SDS011;1679;50.392;8.008;2022-07-23T12:31:02;5.30;;;5.00;;
3333;SDS011;1679;50.392;8.008;2022-07-23T12:35:59;6.63;;;5.20;;
3333;SDS011;1679;50.392;8.008;2022-07-23T12:38:27;5.23;;;4.93;;
3333;SDS011;1679;50.392;8.008;2022-07-23T12:41:00;5.30;;;5.00;;
3333;SDS011;1679;50.392;8.008;2022-07-23T12:43:27;5.40;;;5.10;;
3333;SDS011;1679;50.392;8.008;2022-07-23T12:45:54;6.10;;;5.60;;
3333;SDS011;1679;50.392;8.008;2022-07-23T12:48:31;4.80;;;4.50;;
3333;SDS011;1679;50.392;8.008;2022-07-23T12:51:05;5.63;;;5.20;;
3333;SDS011;1679;50.392;8.008;2022-07-23T12:53:53;8.07;;;5.03;;
3333;SDS011;1679;50.392;8.008;2022-07-23T12:58:52;9.13;;;5.17;;
3333;SDS011;1679;50.392;8.008;2022-07-23T13:01:23;6.17;;;4.87;;
3333;SDS011;1679;50.392;8.008;2022-07-23T13:03:55;5.57;;;5.17;;
3333;SDS011;1679;50.392;8.008;2022-07-23T13:06:29;4.87;;;4.63;;
3333;SDS011;1679;50.392;8.008;2022-07-23T13:08:56;5.60;;;5.23;;
3333;SDS011;1679;50.392;8.008;2022-07-23T13:11:22;5.90;;;5.60;;
3333;SDS011;1679;50.392;8.008;2022-07-23T13:13:49;5.20;;;4.90;;
3333;SDS011;1679;50.392;8.008;2022-07-23T13:16:14;6.00;;;5.60;;
3333;SDS011;1679;50.392;8.008;2022-07-23T13:18:40;5.47;;;5.07;;
3333;SDS011;1679;50.392;8.008;2022-07-23T13:21:06;6.10;;;5.60;;
3333;SDS011;1679;50.392;8.008;2022-07-23T13:23:33;5.50;;;5.20;;
3333;SDS011;1679;50.392;8.008;2022-07-23T13:25:58;5.57;;;5.07;;
3333;SDS011;1679;50.392;8.008;2022-07-23T13:28:24;5.33;;;5.03;;
3333;SDS011;1679;50.392;8.008;2022-07-23T13:30:50;5.87;;;5.47;;
3333;SDS011;1679;50.392;8.008;2022-07-23T13:33:20;5.97;;;5.40;;
3333;SDS011;1679;50.392;8.008;2022-07-23T13:35:49;5.80;;;5.40;;
3333;SDS011;1679;50.392;8.008;2022-07-23T13:38:16;6.70;;;5.43;;
3333;SDS011;1679;50.392;8.008;2022-07-23T13:40:43;5.13;;;4.83;;
3333;SDS011;1679;50.392;8.008;2022-07-23T13:43:11;5.40;;;5.10;;
3333;SDS011;1679;50.392;8.008;2022-07-23T13:45:38;6.80;;;5.40;;
3333;SDS011;1679;50.392;8.008;2022-07-23T13:48:05;5.60;;;5.30;;
3333;SDS011;1679;50.392;8.008;2022-07-23T13:50:31;4.63;;;4.43;;
3333;SDS011;1679;50.392;8.008;2022-07-23T13:52:59;5.50;;;5.10;;
3333;SDS011;1679;50.392;8.008;2022-07-23T13:55:26;5.13;;;4.70;;
3333;SDS011;1679;50.392;8.008;2022-07-23T13:57:51;5.67;;;5.17;;
3333;SDS011;1679;50.392;8.008;2022-07-23T14:00:17;5.50;;;4.77;;
3333;SDS011;1679;50.392;8.008;2022-07-23T14:02:43;4.90;;;4.53;;
3333;SDS011;1679;50.392;8.008;2022-07-23T14:05:09;5.67;;;5.27;;
3333;SDS011;1679;50.392;8.008;2022-07-23T14:07:36;5.40;;;5.10;;
3333;SDS011;1679;50.392;8.008;2022-07-23T14:10:04;5.13;;;4.93;;
3333;SDS011;1679;50.392;8.008;2022-07-23T14:12:30;5.40;;;5.10;;
3333;SDS011;1679;50.392;8.008;2022-07-23T14:14:56;5.27;;;4.97;;
3333;SDS011;1679;50.392;8.008;2022-07-23T14:17:22;6.37;;;5.37;;
3333;SDS011;1679;50.392;8.008;2022-07-23T14:19:48;5.23;;;4.73;;
3333;SDS011;1679;50.392;8.008;2022-07-23T14:22:13;5.13;;;4.73;;
3333;SDS011;1679;50.392;8.008;2022-07-23T14:24:39;5.17;;;4.57;;
3333;SDS011;1679;50.392;8.008;2022-07-23T14:27:05;5.10;;;4.80;;
3333;SDS011;1679;50.392;8.008;2022-07-23T14:29:31;5.00;;;4.60;;
3333;SDS011;1679;50.392;8.008;2022-07-23T14:31:57;4.87;;;4.47;;
3333;SDS011;1679;50.392;8.008;2022-07-23T14:34:23;4.97;;;4.57;;
3333;SDS011;1679;50.392;8.008;2022-07-23T14:36:50;4.80;;;4.57;;
3333;SDS011;1679;50.392;8.008;2022-07-23T14:39:15;5.63;;;5.23;;
3333;SDS011;1679;50.392;8.008;2022-07-23T14:41:41;5.07;;;4.77;;
3333;SDS011;1679;50.392;8.008;2022-07-23T14:44:06;5.57;;;5.17;;
3333;SDS011;1679;50.392;8.008;2022-07-23T14:46:32;5.10;;;4.70;;
3333;SDS011;1679;50.392;8.008;2022-07-23T14:48:58;6.70;;;6.20;;
3333;SDS011;1679;50.392;8.008;2022-07-23T14:51:23;5.30;;;5.03;;
3333;SDS011;1679;50.392;8.008;2022-07-23T14:53:49;6.13;;;5.63;;
3333;SDS011;1679;50.392;8.008;2022-07-23T14:56:15;4.67;;;4.37;;
3333;SDS011;1679;50.392;8.008;2022-07-23T14:58:40;5.67;;;5.37;;
3333;SDS011;1679;50.392;8.008;2022-07-23T15:01:06;4.97;;;4.67;;
3333;SDS011;1679;50.392;8.008;2022-07-23T15:03:32;6.23;;;5.93;;
3333;SDS011;1679;50.392;8.008;2022-07-23T15:05:58;5.80;;;5.40;;
3333;SDS011;1679;50.392;8.008;2022-07-23T15:08:24;5.40;;;5.10;;
3333;SDS011;1679;50.392;8.008;2022-07-23T15:10:49;5.17;;;4.90;;
3333;SDS011;1679;50.392;8.008;2022-07-23T15:13:15;5.87;;;5.27;;
3333;SDS011;1679;50.392;8.008;2022-07-23T15:15:41;5.83;;;5.33;;
3333;SDS011;1679;50.392;8.008;2022-07-23T15:18:06;5.27;;;4.97;;
3333;SDS011;1679;50.392;8.008;2022-07-23T15:20:32;8.40;;;7.70;;
3333;SDS011;1679;50.392;8.008;2022-07-23T15:22:58;6.30;;;5.80;;
3333;SDS011;1679;50.392;8.008;2022-07-23T15:25:23;6.47;;;5.07;;
3333;SDS011;1679;50.392;8.008;2022-07-23T15:27:49;4.90;;;4.60;;
3333;SDS011;1679;50.392;8.008;2022-07-23T15:30:14;5.03;;;4.67;;
3333;SDS011;1679;50.392;8.008;2022-07-23T15:32:40;5.73;;;5.17;;
3333;SDS011;1679;50.392;8.008;2022-07-23T15:35:06;4.60;;;4.23;;
3333;SDS011;1679;50.392;8.008;2022-07-23T15:37:33;5.27;;;4.97;;
3333;SDS011;1679;50.392;8.008;2022-07-23T15:39:59;5.97;;;5.57;;
3333;SDS011;1679;50.392;8.008;2022-07-23T15:42:25;11.10;;;10.10;;
3333;SDS011;1679;50.392;8.008;2022-07-23T15:44:51;5.73;;;5.23;;
3333;SDS011;1679;50.392;8.008;2022-07-23T15:47:17;5.67;;;5.27;;
3333;SDS011;1679;50.392;8.008;2022-07-23T15:49:44;5.93;;;5.53;;
3333;SDS011;1679;50.392;8.008;2022-07-23T15:52:10;5.27;;;4.97;;
3333;SDS011;1679;50.392;8.008;2022-07-23T15:54:36;5.60;;;5.13;;
3333;SDS011;1679;50.392;8.008;2022-07-23T15:57:03;5.20;;;4.90;;
3333;SDS011;1679;50.392;8.008;2022-07-23T15:59:29;14.23;;;12.77;;